KMSY

New Orleans

Airport
ICAO code
KMSY
Summary
ICAO Region
NAM
ICAO Territory
Location

New Orleans, Louisiana,

Coordinates
29° 59' 36" N , 90° 15' 29" W
KCC
Metar
KMSY 122353Z 18009KT 10SM FEW040 SCT250 32/24 A3006 RMK AO2 SLP182 CB DSNT N AND SW AND NW 60000 T03220244 10333 20289 53001

Description

International airport 10 nm west of the city of New Orleans, Louisiana, USA.

Climatology

Humid “subtropical” climate (Köppen climate classification Cfa) - characterized by hot, humid summers and cool winters. Significant amounts of precipitation occur in all seasons in most areas. Winter rainfall (and sometimes snowfall) is associated with large storms that the westerlies steer from west to east. Most summer rainfall occurs during thunderstorms and occasional tropical storms (hurricanes).

Runways

Designator Length Width Surface Rops
6/24 1088 46 ASP Yes/Yes
1/19 2134 46 ASP Yes/Yes
10/28 3080 46 PEM Yes/Yes

Airport map

Aerial View

SKYbrary Partners:

Safety knowledge contributed by: